Time;durP1;ratioP1;P1;durP2;ratioP2;P2;SDS_P1;SDS_P2;PMS_P1;PMS_P2;Temp;Humidity;BMP_temperature;BMP_pressure;BME280_temperature;BME280_humidity;BME280_pressure;Samples;Min_cycle;Max_cycle;Signal;HPM_P1;HPM_P2
2023/10/02 00:03:34;;;;;;;;;;;;;;;24.81;33.76;99112.63;5014193;28;20021;-77
2023/10/02 00:05:59;;;;;;;;;;;;;;;24.82;33.82;99105.41;5012123;28;20012;-78
2023/10/02 00:08:41;;;;;;;;;;;;;;;24.82;33.82;99105.41;4996287;28;19924;-77
2023/10/02 00:11:35;;;;;;;;;;;;;;;24.79;34.09;99101.28;4997875;28;19917;-78
2023/10/02 00:14:18;;;;;;;;;;;;;;;24.80;34.25;99094.13;5012998;28;19921;-78
2023/10/02 00:16:42;;;;;;;;;;;;;;;24.79;34.39;99092.47;5011811;28;19918;-78
2023/10/02 00:19:18;;;;;;;;;;;;;;;24.78;34.33;99090.81;5011671;28;19917;-79
2023/10/02 00:21:46;;;;;;;;;;;;;;;24.77;34.24;99089.19;5012484;28;19924;-78
2023/10/02 00:24:12;;;;;;;;;;;;;;;24.77;34.49;99081.19;4995976;28;20106;-78
2023/10/02 00:26:38;;;;;;;;;;;;;;;24.76;34.53;99087.53;5013578;28;19917;-78
2023/10/02 00:29:06;;;;;;;;;;;;;;;24.75;34.51;99081.38;5013124;28;19917;-77
2023/10/02 00:31:36;;;;;;;;;;;;;;;24.76;34.48;99082.19;5011909;28;20629;-78
2023/10/02 00:34:01;;;;;;;;;;;;;;;24.73;34.52;99086.91;5012481;28;20352;-78
2023/10/02 00:36:29;;;;;;;;;;;;;;;24.72;34.75;99073.78;5012707;28;20305;-78
2023/10/02 00:39:02;;;;;;;;;;;;;;;24.71;34.85;99074.78;5017155;28;19918;-77
2023/10/02 00:41:38;;;;;;;;;;;;;;;24.70;34.80;99081.97;5017218;28;19921;-78
2023/10/02 00:44:06;;;;;;;;;;;;;;;24.69;34.93;99080.31;4999860;28;20380;-78
2023/10/02 00:46:42;;;;;;;;;;;;;;;24.69;34.83;99082.19;5016000;28;19917;-77
2023/10/02 00:49:25;;;;;;;;;;;;;;;24.68;35.02;99081.34;5015909;28;20017;-82
2023/10/02 00:52:00;;;;;;;;;;;;;;;24.64;35.55;99082.78;5015956;28;19949;-71
2023/10/02 00:54:27;;;;;;;;;;;;;;;24.69;35.58;99087.53;4998942;28;19996;-72
2023/10/02 00:56:53;;;;;;;;;;;;;;;24.68;35.67;99089.34;5015062;28;20370;-72
2023/10/02 00:59:23;;;;;;;;;;;;;;;24.67;35.48;99079.72;5015992;28;19952;-74
2023/10/02 01:01:48;;;;;;;;;;;;;;;24.70;35.53;99083.81;5014631;28;19918;-77
2023/10/02 01:04:24;;;;;;;;;;;;;;;24.71;35.51;99083.59;5001977;28;20359;-72
2023/10/02 01:07:04;;;;;;;;;;;;;;;24.74;35.57;99080.53;5015273;28;19918;-73
2023/10/02 01:09:30;;;;;;;;;;;;;;;24.73;38.87;99070.91;5015183;28;19918;-72
2023/10/02 01:11:58;;;;;;;;;;;;;;;24.73;39.85;99078.91;5015146;28;20274;-74
2023/10/02 01:17:08;;;;;;;;;;;;;;;24.78;37.75;99078.31;5029109;28;19983;-73
2023/10/02 01:19:52;;;;;;;;;;;;;;;24.80;37.39;99084.25;5025903;28;19928;-73
2023/10/02 01:22:26;;;;;;;;;;;;;;;24.79;37.25;99087.94;5006471;28;19921;-72
2023/10/02 01:25:06;;;;;;;;;;;;;;;24.79;36.89;99095.13;5024296;28;20300;-72
2023/10/02 01:27:40;;;;;;;;;;;;;;;24.78;36.80;99099.66;5034824;28;19917;-73
2023/10/02 01:30:15;;;;;;;;;;;;;;;24.78;36.62;99104.16;5018635;28;20039;-73
2023/10/02 01:35:36;;;;;;;;;;;;;;;24.78;36.17;99101.50;5034936;28;19959;-73
2023/10/02 01:38:06;;;;;;;;;;;;;;;24.78;36.33;99104.16;5034678;28;19924;-73
2023/10/02 01:40:35;;;;;;;;;;;;;;;24.79;36.09;99103.16;5018394;28;20299;-73
2023/10/02 01:43:11;;;;;;;;;;;;;;;24.75;35.96;99108.06;5033956;28;19917;-72
2023/10/02 01:45:42;;;;;;;;;;;;;;;24.74;36.03;99103.75;5034237;28;19964;-72
2023/10/02 01:48:08;;;;;;;;;;;;;;;24.73;36.02;99115.44;5033189;28;20384;-72
2023/10/02 01:50:35;;;;;;;;;;;;;;;24.69;36.17;99112.34;5035298;28;19963;-72
2023/10/02 01:53:07;;;;;;;;;;;;;;;24.68;36.17;99108.03;5032974;28;19917;-73
2023/10/02 01:55:35;;;;;;;;;;;;;;;24.66;36.12;99109.28;5035177;28;19917;-73
2023/10/02 01:58:19;;;;;;;;;;;;;;;24.62;36.01;99106.19;5035329;28;20393;-72
2023/10/02 02:00:45;;;;;;;;;;;;;;;24.61;36.05;99120.53;5019599;28;19917;-73
2023/10/02 02:03:17;;;;;;;;;;;;;;;24.59;36.23;99114.59;5035311;28;19917;-72
2023/10/02 02:05:46;;;;;;;;;;;;;;;24.56;36.13;99120.28;5033994;28;20308;-73
2023/10/02 02:08:21;;;;;;;;;;;;;;;24.54;36.10;99122.31;5018301;28;19939;-72
2023/10/02 02:10:50;;;;;;;;;;;;;;;24.53;36.02;99121.50;5034778;28;19917;-73
2023/10/02 02:13:16;;;;;;;;;;;;;;;24.51;36.19;99117.38;5034063;28;20571;-74
2023/10/02 02:15:51;;;;;;;;;;;;;;;24.51;36.11;99117.38;5034186;28;19917;-73
2023/10/02 02:18:19;;;;;;;;;;;;;;;24.48;36.16;99123.94;5035399;28;19948;-73
2023/10/02 02:20:44;;;;;;;;;;;;;;;24.47;36.17;99118.81;5036316;28;20387;-72
2023/10/02 02:23:14;;;;;;;;;;;;;;;24.45;36.03;99123.50;5035752;28;19917;-73
2023/10/02 02:25:39;;;;;;;;;;;;;;;24.41;36.18;99124.94;5018886;28;20016;-72
2023/10/02 02:28:06;;;;;;;;;;;;;;;24.38;36.35;99118.97;5036863;28;20415;-73
2023/10/02 02:30:40;;;;;;;;;;;;;;;24.36;36.41;99122.84;5035003;28;19924;-73
2023/10/02 02:33:07;;;;;;;;;;;;;;;24.34;36.19;99117.72;5034606;28;19933;-73
2023/10/02 02:35:35;;;;;;;;;;;;;;;24.34;36.39;99125.72;5033568;28;19921;-72
2023/10/02 02:38:02;;;;;;;;;;;;;;;24.32;36.35;99119.75;5032970;28;20382;-72
2023/10/02 02:40:30;;;;;;;;;;;;;;;24.30;36.33;99123.63;5033798;28;19959;-72
2023/10/02 02:42:56;;;;;;;;;;;;;;;24.30;36.56;99123.63;5033725;28;19917;-73
2023/10/02 02:45:29;;;;;;;;;;;;;;;24.30;36.43;99121.78;5016150;28;20305;-75
2023/10/02 02:48:06;;;;;;;;;;;;;;;24.29;36.45;99121.97;5034151;28;19924;-71
2023/10/02 02:50:35;;;;;;;;;;;;;;;24.27;36.60;99129.34;5033189;28;20245;-72
2023/10/02 02:55:45;;;;;;;;;;;;;;;24.25;36.65;99139.41;5034073;28;19983;-71
2023/10/02 02:58:11;;;;;;;;;;;;;;;24.25;36.54;99139.41;5034308;28;20376;-71
2023/10/02 03:00:40;;;;;;;;;;;;;;;24.22;36.70;99143.28;5034631;28;19925;-72
2023/10/02 03:03:29;;;;;;;;;;;;;;;24.21;36.73;99133.66;5017233;28;19917;-73
2023/10/02 03:05:52;;;;;;;;;;;;;;;24.19;36.96;99144.50;5034386;28;19925;-72
2023/10/02 03:08:18;;;;;;;;;;;;;;;24.18;36.77;99153.53;5034632;28;19928;-72
2023/10/02 03:10:46;;;;;;;;;;;;;;;24.16;36.88;99155.56;5039370;28;19917;-72
2023/10/02 03:13:17;;;;;;;;;;;;;;;24.14;36.94;99152.25;5042047;28;19940;-71
2023/10/02 03:15:45;;;;;;;;;;;;;;;24.11;36.89;99146.50;5025153;28;19921;-71
2023/10/02 03:18:23;;;;;;;;;;;;;;;24.06;37.14;99149.75;5024095;28;19971;-72
2023/10/02 03:20:49;;;;;;;;;;;;;;;24.05;37.01;99152.59;5023344;28;19921;-73
2023/10/02 03:23:15;;;;;;;;;;;;;;;24.02;37.05;99151.13;5037265;28;19917;-73
2023/10/02 03:25:44;;;;;;;;;;;;;;;23.99;37.00;99159.56;5017389;28;19928;-72
2023/10/02 03:28:16;;;;;;;;;;;;;;;23.97;37.10;99165.06;5031767;28;19982;-73
2023/10/02 03:30:46;;;;;;;;;;;;;;;23.94;37.17;99168.13;5027944;28;19959;-73
2023/10/02 03:33:18;;;;;;;;;;;;;;;23.91;36.96;99173.84;5023359;28;19975;-73
2023/10/02 03:35:58;;;;;;;;;;;;;;;23.89;37.19;99170.53;5022349;28;19929;-75
2023/10/02 03:38:26;;;;;;;;;;;;;;;23.86;37.11;99170.91;4996715;28;20011;-75
2023/10/02 03:40:58;;;;;;;;;;;;;;;23.89;38.05;99164.38;4996153;28;19940;-75
2023/10/02 03:43:42;;;;;;;;;;;;;;;23.76;38.26;99170.41;4995849;28;19924;-74
2023/10/02 03:46:12;;;;;;;;;;;;;;;23.77;39.39;99164.88;5012630;28;19968;-74
2023/10/02 03:48:38;;;;;;;;;;;;;;;23.87;39.10;99177.91;5012389;28;19968;-75
2023/10/02 03:51:04;;;;;;;;;;;;;;;23.93;39.02;99173.66;4995593;28;19957;-76
2023/10/02 03:53:29;;;;;;;;;;;;;;;23.98;38.64;99166.72;4994847;28;19918;-73
2023/10/02 03:56:02;;;;;;;;;;;;;;;24.03;39.03;99171.47;5012029;28;20365;-75
2023/10/02 03:58:38;;;;;;;;;;;;;;;24.06;38.96;99175.59;4996061;28;19924;-78
2023/10/02 04:01:08;;;;;;;;;;;;;;;24.07;39.54;99186.06;5012920;28;19918;-84
2023/10/02 04:03:34;;;;;;;;;;;;;;;24.08;39.67;99184.22;5012609;28;19918;-80
2023/10/02 04:06:00;;;;;;;;;;;;;;;24.08;39.53;99192.22;5012239;28;19940;-79
2023/10/02 04:08:37;;;;;;;;;;;;;;;24.06;39.31;99196.94;5013391;28;19917;-75
2023/10/02 04:11:09;;;;;;;;;;;;;;;23.97;39.21;99197.06;5012955;28;20361;-83
2023/10/02 04:13:39;;;;;;;;;;;;;;;23.91;38.66;99189.84;4996517;28;19929;-78
2023/10/02 04:19:06;;;;;;;;;;;;;;;23.83;38.68;99190.81;5013485;28;20027;-74
2023/10/02 04:21:33;;;;;;;;;;;;;;;23.82;39.11;99191.78;4997823;28;19917;-82
2023/10/02 04:23:58;;;;;;;;;;;;;;;23.82;39.41;99193.63;4996095;28;19965;-78
2023/10/02 04:26:24;;;;;;;;;;;;;;;23.79;39.68;99202.00;5013147;28;19999;-79
2023/10/02 04:28:54;;;;;;;;;;;;;;;23.70;39.90;99198.63;5012074;28;19924;-81
2023/10/02 04:31:22;;;;;;;;;;;;;;;23.57;39.32;99201.19;5011688;28;20464;-77
2023/10/02 04:33:54;;;;;;;;;;;;;;;23.45;39.48;99207.03;4995806;28;20392;-76
2023/10/02 04:36:31;;;;;;;;;;;;;;;23.39;39.54;99209.59;5016384;28;19921;-77
2023/10/02 04:38:57;;;;;;;;;;;;;;;23.32;39.53;99211.38;5032612;28;19923;-77
2023/10/02 04:41:26;;;;;;;;;;;;;;;23.27;39.88;99218.06;5015905;28;19944;-77
2023/10/02 04:44:04;;;;;;;;;;;;;;;23.23;39.87;99216.81;5032038;28;19924;-77
2023/10/02 04:46:32;;;;;;;;;;;;;;;23.19;40.25;99212.06;5032631;28;19917;-76
2023/10/02 04:49:01;;;;;;;;;;;;;;;23.18;39.92;99219.19;5031786;28;19921;-78
2023/10/02 04:51:30;;;;;;;;;;;;;;;23.20;39.56;99214.53;5032956;28;19924;-76
2023/10/02 04:53:57;;;;;;;;;;;;;;;23.21;39.42;99218.00;5032828;28;19956;-77
2023/10/02 04:56:24;;;;;;;;;;;;;;;23.23;39.55;99219.47;5032673;28;19921;-81
2023/10/02 04:58:50;;;;;;;;;;;;;;;23.48;38.99;99227.09;5015358;28;19922;-78
2023/10/02 05:01:34;;;;;;;;;;;;;;;23.72;38.27;99225.94;5032252;28;19917;-78
2023/10/02 05:04:03;;;;;;;;;;;;;;;24.05;37.75;99224.59;5032861;28;20444;-77
2023/10/02 05:06:44;;;;;;;;;;;;;;;24.07;37.64;99239.41;5031050;28;20018;-76
2023/10/02 05:11:52;;;;;;;;;;;;;;;23.95;37.61;99233.75;5031332;28;19917;-76
2023/10/02 05:14:28;;;;;;;;;;;;;;;23.93;37.71;99240.31;5016474;28;19917;-76
2023/10/02 05:17:04;;;;;;;;;;;;;;;23.91;37.73;99242.31;5031516;28;19917;-76
